sensor_id;sensor_type;location;lat;lon;timestamp;pressure;altitude;pressure_sealevel;temperature;humidity
41654;BME280;68687;52.030;7.110;2023-04-22T00:01:22;100213.31;;;8.36;95.99
41654;BME280;68687;52.030;7.110;2023-04-22T00:03:52;100203.63;;;8.35;95.05
41654;BME280;68687;52.030;7.110;2023-04-22T00:06:17;100208.97;;;8.35;95.02
41654;BME280;68687;52.030;7.110;2023-04-22T00:08:46;100201.75;;;8.13;95.67
41654;BME280;68687;52.030;7.110;2023-04-22T00:11:11;100193.78;;;8.05;96.17
41654;BME280;68687;52.030;7.110;2023-04-22T00:13:36;100188.44;;;8.05;96.11
41654;BME280;68687;52.030;7.110;2023-04-22T00:16:08;100187.59;;;7.82;96.37
41654;BME280;68687;52.030;7.110;2023-04-22T00:18:36;100180.81;;;7.71;97.36
41654;BME280;68687;52.030;7.110;2023-04-22T00:21:02;100186.66;;;7.66;97.86
41654;BME280;68687;52.030;7.110;2023-04-22T00:23:28;100182.25;;;7.82;97.27
41654;BME280;68687;52.030;7.110;2023-04-22T00:25:59;100179.97;;;7.93;95.68
41654;BME280;68687;52.030;7.110;2023-04-22T00:28:28;100179.16;;;7.93;94.87
41654;BME280;68687;52.030;7.110;2023-04-22T00:30:59;100179.97;;;7.70;96.28
41654;BME280;68687;52.030;7.110;2023-04-22T00:33:27;100173.94;;;7.77;96.88
41654;BME280;68687;52.030;7.110;2023-04-22T00:35:52;100174.59;;;7.79;95.82
41654;BME280;68687;52.030;7.110;2023-04-22T00:38:19;100172.91;;;7.78;95.05
41654;BME280;68687;52.030;7.110;2023-04-22T00:40:44;100163.72;;;7.80;95.17
41654;BME280;68687;52.030;7.110;2023-04-22T00:43:15;100165.63;;;7.71;95.63
41654;BME280;68687;52.030;7.110;2023-04-22T00:45:41;100169.25;;;7.79;95.04
41654;BME280;68687;52.030;7.110;2023-04-22T00:48:13;100174.94;;;7.75;94.92
41654;BME280;68687;52.030;7.110;2023-04-22T00:50:44;100174.75;;;7.77;94.65
41654;BME280;68687;52.030;7.110;2023-04-22T00:53:09;100168.88;;;7.82;93.53
41654;BME280;68687;52.030;7.110;2023-04-22T00:55:35;100162.41;;;7.76;93.24
41654;BME280;68687;52.030;7.110;2023-04-22T00:58:02;100172.28;;;7.75;93.20
41654;BME280;68687;52.030;7.110;2023-04-22T01:00:31;100169.50;;;7.61;93.43
41654;BME280;68687;52.030;7.110;2023-04-22T01:02:59;100157.28;;;7.66;93.21
41654;BME280;68687;52.030;7.110;2023-04-22T01:05:29;100162.50;;;7.60;92.82
41654;BME280;68687;52.030;7.110;2023-04-22T01:07:55;100162.66;;;7.58;92.81
41654;BME280;68687;52.030;7.110;2023-04-22T01:10:20;100151.75;;;7.37;94.76
41654;BME280;68687;52.030;7.110;2023-04-22T01:12:46;100158.75;;;7.38;95.61
41654;BME280;68687;52.030;7.110;2023-04-22T01:15:11;100161.06;;;7.49;94.18
41654;BME280;68687;52.030;7.110;2023-04-22T01:17:36;100155.09;;;7.39;94.37
41654;BME280;68687;52.030;7.110;2023-04-22T01:20:02;100154.59;;;7.35;94.32
41654;BME280;68687;52.030;7.110;2023-04-22T01:22:36;100149.31;;;7.27;94.95
41654;BME280;68687;52.030;7.110;2023-04-22T01:25:04;100154.88;;;7.09;95.72
41654;BME280;68687;52.030;7.110;2023-04-22T01:27:31;100153.25;;;7.00;96.44
41654;BME280;68687;52.030;7.110;2023-04-22T01:29:59;100148.75;;;7.01;96.29
41654;BME280;68687;52.030;7.110;2023-04-22T01:32:25;100150.88;;;7.05;97.09
41654;BME280;68687;52.030;7.110;2023-04-22T01:34:50;100144.41;;;7.00;96.62
41654;BME280;68687;52.030;7.110;2023-04-22T01:37:16;100149.88;;;7.06;96.86
41654;BME280;68687;52.030;7.110;2023-04-22T01:39:42;100149.06;;;7.06;96.08
41654;BME280;68687;52.030;7.110;2023-04-22T01:42:07;100142.25;;;6.95;96.17
41654;BME280;68687;52.030;7.110;2023-04-22T01:44:36;100146.22;;;7.07;95.59
41654;BME280;68687;52.030;7.110;2023-04-22T01:47:01;100143.38;;;7.09;95.79
41654;BME280;68687;52.030;7.110;2023-04-22T01:49:32;100138.53;;;7.12;94.99
41654;BME280;68687;52.030;7.110;2023-04-22T01:51:58;100145.56;;;7.05;94.77
41654;BME280;68687;52.030;7.110;2023-04-22T01:54:26;100151.25;;;7.02;94.54
41654;BME280;68687;52.030;7.110;2023-04-22T01:56:52;100154.38;;;7.06;94.81
41654;BME280;68687;52.030;7.110;2023-04-22T01:59:21;100142.06;;;7.05;94.98
41654;BME280;68687;52.030;7.110;2023-04-22T02:01:47;100147.22;;;7.06;94.38
41654;BME280;68687;52.030;7.110;2023-04-22T02:04:12;100153.25;;;7.00;94.25
41654;BME280;68687;52.030;7.110;2023-04-22T02:06:41;100150.97;;;6.89;95.57
41654;BME280;68687;52.030;7.110;2023-04-22T02:09:07;100145.72;;;7.04;96.36
41654;BME280;68687;52.030;7.110;2023-04-22T02:11:32;100152.94;;;6.95;95.87
41654;BME280;68687;52.030;7.110;2023-04-22T02:13:57;100147.56;;;7.03;95.04
41654;BME280;68687;52.030;7.110;2023-04-22T02:16:23;100145.38;;;7.07;94.49
41654;BME280;68687;52.030;7.110;2023-04-22T02:18:48;100143.59;;;6.99;95.83
41654;BME280;68687;52.030;7.110;2023-04-22T02:21:13;100146.56;;;7.04;97.07
41654;BME280;68687;52.030;7.110;2023-04-22T02:23:39;100140.25;;;6.97;96.79
41654;BME280;68687;52.030;7.110;2023-04-22T02:26:08;100134.53;;;7.08;95.93
41654;BME280;68687;52.030;7.110;2023-04-22T02:28:36;100127.50;;;7.16;97.11
41654;BME280;68687;52.030;7.110;2023-04-22T02:31:02;100131.03;;;7.16;97.72
41654;BME280;68687;52.030;7.110;2023-04-22T02:33:27;100130.50;;;7.21;97.66
41654;BME280;68687;52.030;7.110;2023-04-22T02:35:55;100126.47;;;7.25;97.45
41654;BME280;68687;52.030;7.110;2023-04-22T02:38:30;100122.44;;;7.29;97.51
41654;BME280;68687;52.030;7.110;2023-04-22T02:40:58;100130.41;;;7.37;97.57
41654;BME280;68687;52.030;7.110;2023-04-22T02:43:23;100129.09;;;7.33;97.31
41654;BME280;68687;52.030;7.110;2023-04-22T02:45:48;100127.91;;;7.35;97.92
41654;BME280;68687;52.030;7.110;2023-04-22T02:48:14;100129.66;;;7.51;97.84
41654;BME280;68687;52.030;7.110;2023-04-22T02:50:39;100129.38;;;7.92;98.74
41654;BME280;68687;52.030;7.110;2023-04-22T02:53:04;100121.31;;;8.23;98.12
41654;BME280;68687;52.030;7.110;2023-04-22T02:55:30;100113.25;;;8.46;97.70
41654;BME280;68687;52.030;7.110;2023-04-22T02:57:55;100111.53;;;8.67;96.94
41654;BME280;68687;52.030;7.110;2023-04-22T03:00:20;100110.63;;;8.90;96.94
41654;BME280;68687;52.030;7.110;2023-04-22T03:02:46;100106.53;;;8.94;96.30
41654;BME280;68687;52.030;7.110;2023-04-22T03:05:11;100111.41;;;9.20;95.84
41654;BME280;68687;52.030;7.110;2023-04-22T03:07:39;100112.13;;;9.28;95.19
41654;BME280;68687;52.030;7.110;2023-04-22T03:10:06;100106.31;;;9.40;94.41
41654;BME280;68687;52.030;7.110;2023-04-22T03:12:32;100101.97;;;9.39;94.52
41654;BME280;68687;52.030;7.110;2023-04-22T03:14:57;100104.91;;;9.44;94.28
41654;BME280;68687;52.030;7.110;2023-04-22T03:17:32;100096.53;;;9.32;94.50
41654;BME280;68687;52.030;7.110;2023-04-22T03:19:57;100098.72;;;9.43;93.67
41654;BME280;68687;52.030;7.110;2023-04-22T03:22:22;100109.50;;;9.50;93.35
41654;BME280;68687;52.030;7.110;2023-04-22T03:24:51;100098.66;;;9.37;93.59
41654;BME280;68687;52.030;7.110;2023-04-22T03:27:16;100095.41;;;9.41;93.08
41654;BME280;68687;52.030;7.110;2023-04-22T03:29:41;100106.25;;;9.54;92.58
41654;BME280;68687;52.030;7.110;2023-04-22T03:32:09;100098.59;;;9.51;91.96
41654;BME280;68687;52.030;7.110;2023-04-22T03:34:35;100094.63;;;9.47;92.24
41654;BME280;68687;52.030;7.110;2023-04-22T03:37:12;100090.91;;;9.63;91.92
41654;BME280;68687;52.030;7.110;2023-04-22T03:39:37;100084.44;;;9.57;91.33
41654;BME280;68687;52.030;7.110;2023-04-22T03:42:03;100093.03;;;9.53;92.34
41654;BME280;68687;52.030;7.110;2023-04-22T03:44:28;100081.94;;;9.56;91.50
41654;BME280;68687;52.030;7.110;2023-04-22T03:46:53;100089.31;;;9.69;90.27
41654;BME280;68687;52.030;7.110;2023-04-22T03:49:19;100080.91;;;9.57;91.59
41654;BME280;68687;52.030;7.110;2023-04-22T03:51:44;100087.00;;;9.66;90.24
41654;BME280;68687;52.030;7.110;2023-04-22T03:54:09;100087.66;;;9.89;88.91
41654;BME280;68687;52.030;7.110;2023-04-22T03:56:34;100081.13;;;9.77;89.48
41654;BME280;68687;52.030;7.110;2023-04-22T03:59:00;100077.56;;;9.70;89.91
41654;BME280;68687;52.030;7.110;2023-04-22T04:01:29;100085.47;;;9.78;88.68
41654;BME280;68687;52.030;7.110;2023-04-22T04:03:57;100082.94;;;9.70;89.02
41654;BME280;68687;52.030;7.110;2023-04-22T04:06:23;100078.06;;;9.58;90.41
41654;BME280;68687;52.030;7.110;2023-04-22T04:08:48;100076.41;;;9.79;89.06
41654;BME280;68687;52.030;7.110;2023-04-22T04:11:13;100081.19;;;9.83;88.68
41654;BME280;68687;52.030;7.110;2023-04-22T04:13:38;100077.28;;;9.86;87.95
41654;BME280;68687;52.030;7.110;2023-04-22T04:16:04;100070.16;;;9.93;87.13
41654;BME280;68687;52.030;7.110;2023-04-22T04:18:29;100074.50;;;9.94;87.71
41654;BME280;68687;52.030;7.110;2023-04-22T04:20:54;100069.34;;;9.93;87.75
41654;BME280;68687;52.030;7.110;2023-04-22T04:23:20;100077.56;;;9.70;89.33
41654;BME280;68687;52.030;7.110;2023-04-22T04:25:45;100070.84;;;9.80;88.64
41654;BME280;68687;52.030;7.110;2023-04-22T04:28:15;100074.06;;;9.90;87.77
41654;BME280;68687;52.030;7.110;2023-04-22T04:30:41;100074.88;;;9.91;87.90
41654;BME280;68687;52.030;7.110;2023-04-22T04:33:19;100072.44;;;9.75;88.67
41654;BME280;68687;52.030;7.110;2023-04-22T04:35:44;100071.31;;;9.63;89.60
41654;BME280;68687;52.030;7.110;2023-04-22T04:38:09;100073.03;;;9.70;89.55
41654;BME280;68687;52.030;7.110;2023-04-22T04:40:36;100070.34;;;9.70;89.06
41654;BME280;68687;52.030;7.110;2023-04-22T04:43:02;100059.97;;;9.60;89.83
41654;BME280;68687;52.030;7.110;2023-04-22T04:45:28;100057.00;;;9.77;88.35
41654;BME280;68687;52.030;7.110;2023-04-22T04:47:54;100063.38;;;9.76;88.15
41654;BME280;68687;52.030;7.110;2023-04-22T04:50:20;100065.03;;;9.77;88.51
41654;BME280;68687;52.030;7.110;2023-04-22T04:52:48;100059.53;;;9.85;87.49
41654;BME280;68687;52.030;7.110;2023-04-22T04:55:14;100061.59;;;9.83;87.26
41654;BME280;68687;52.030;7.110;2023-04-22T04:57:44;100063.44;;;9.82;88.13
41654;BME280;68687;52.030;7.110;2023-04-22T05:00:10;100064.09;;;9.84;87.35
41654;BME280;68687;52.030;7.110;2023-04-22T05:02:35;100066.13;;;9.82;87.33
41654;BME280;68687;52.030;7.110;2023-04-22T05:05:04;100062.38;;;9.77;87.41
41654;BME280;68687;52.030;7.110;2023-04-22T05:07:29;100051.41;;;9.72;87.90
41654;BME280;68687;52.030;7.110;2023-04-22T05:09:55;100063.19;;;9.77;88.06
41654;BME280;68687;52.030;7.110;2023-04-22T05:12:23;100053.31;;;9.78;86.81
41654;BME280;68687;52.030;7.110;2023-04-22T05:14:48;100058.66;;;9.78;87.23
41654;BME280;68687;52.030;7.110;2023-04-22T05:17:13;100059.63;;;9.70;87.86
41654;BME280;68687;52.030;7.110;2023-04-22T05:19:42;100054.97;;;9.79;87.17
41654;BME280;68687;52.030;7.110;2023-04-22T05:22:11;100060.22;;;9.87;87.25
41654;BME280;68687;52.030;7.110;2023-04-22T05:24:36;100056.59;;;10.01;85.87
41654;BME280;68687;52.030;7.110;2023-04-22T05:27:02;100051.00;;;9.96;85.74
41654;BME280;68687;52.030;7.110;2023-04-22T05:29:27;100045.50;;;9.83;86.70
41654;BME280;68687;52.030;7.110;2023-04-22T05:31:56;100047.69;;;9.94;86.50
41654;BME280;68687;52.030;7.110;2023-04-22T05:34:21;100045.63;;;9.96;86.00
41654;BME280;68687;52.030;7.110;2023-04-22T05:36:46;100047.53;;;10.02;85.63
41654;BME280;68687;52.030;7.110;2023-04-22T05:39:12;100051.44;;;10.00;86.12
41654;BME280;68687;52.030;7.110;2023-04-22T05:41:37;100047.59;;;10.09;85.83
41654;BME280;68687;52.030;7.110;2023-04-22T05:44:02;100048.03;;;10.12;85.04
41654;BME280;68687;52.030;7.110;2023-04-22T05:46:27;100061.06;;;10.15;85.34
41654;BME280;68687;52.030;7.110;2023-04-22T05:48:53;100055.03;;;10.13;84.54
41654;BME280;68687;52.030;7.110;2023-04-22T05:51:20;100062.22;;;10.28;84.16
41654;BME280;68687;52.030;7.110;2023-04-22T05:53:45;100053.38;;;10.34;84.30
41654;BME280;68687;52.030;7.110;2023-04-22T05:56:10;100047.78;;;10.29;83.81
41654;BME280;68687;52.030;7.110;2023-04-22T05:58:36;100051.31;;;10.36;83.38
41654;BME280;68687;52.030;7.110;2023-04-22T06:01:02;100048.84;;;10.34;83.50
41654;BME280;68687;52.030;7.110;2023-04-22T06:03:27;100054.16;;;10.28;84.52
41654;BME280;68687;52.030;7.110;2023-04-22T06:05:52;100049.75;;;10.41;84.22
41654;BME280;68687;52.030;7.110;2023-04-22T06:08:18;100053.47;;;10.47;83.26
41654;BME280;68687;52.030;7.110;2023-04-22T06:10:43;100060.28;;;10.43;84.19
41654;BME280;68687;52.030;7.110;2023-04-22T06:13:09;100056.56;;;10.44;83.99
41654;BME280;68687;52.030;7.110;2023-04-22T06:15:40;100048.94;;;10.47;84.50
41654;BME280;68687;52.030;7.110;2023-04-22T06:18:05;100043.59;;;10.54;83.60
41654;BME280;68687;52.030;7.110;2023-04-22T06:20:30;100040.97;;;10.61;83.55
41654;BME280;68687;52.030;7.110;2023-04-22T06:23:00;100040.81;;;10.69;83.17
41654;BME280;68687;52.030;7.110;2023-04-22T06:25:32;100041.25;;;10.72;82.65
41654;BME280;68687;52.030;7.110;2023-04-22T06:27:58;100045.59;;;10.73;82.98
41654;BME280;68687;52.030;7.110;2023-04-22T06:30:23;100045.81;;;10.78;83.35
41654;BME280;68687;52.030;7.110;2023-04-22T06:32:50;100054.88;;;10.71;82.93
41654;BME280;68687;52.030;7.110;2023-04-22T06:35:16;100060.31;;;10.91;82.19
41654;BME280;68687;52.030;7.110;2023-04-22T06:37:41;100056.47;;;11.06;79.54
41654;BME280;68687;52.030;7.110;2023-04-22T06:40:07;100057.50;;;11.05;81.10
41654;BME280;68687;52.030;7.110;2023-04-22T06:42:32;100050.31;;;11.19;80.25
41654;BME280;68687;52.030;7.110;2023-04-22T06:44:58;100049.72;;;11.24;79.58
41654;BME280;68687;52.030;7.110;2023-04-22T06:47:23;100052.16;;;11.19;80.80
41654;BME280;68687;52.030;7.110;2023-04-22T06:49:48;100052.16;;;11.12;81.33
41654;BME280;68687;52.030;7.110;2023-04-22T06:52:14;100051.00;;;11.34;79.62
41654;BME280;68687;52.030;7.110;2023-04-22T06:54:39;100050.81;;;11.49;79.53
41654;BME280;68687;52.030;7.110;2023-04-22T06:57:05;100042.31;;;11.32;80.00
41654;BME280;68687;52.030;7.110;2023-04-22T06:59:32;100048.16;;;11.62;78.53
41654;BME280;68687;52.030;7.110;2023-04-22T07:01:57;100054.78;;;11.73;79.02
41654;BME280;68687;52.030;7.110;2023-04-22T07:04:22;100048.16;;;11.62;79.31
41654;BME280;68687;52.030;7.110;2023-04-22T07:06:48;100059.19;;;11.87;79.08
41654;BME280;68687;52.030;7.110;2023-04-22T07:09:13;100055.88;;;11.79;78.89
41654;BME280;68687;52.030;7.110;2023-04-22T07:11:38;100051.53;;;11.84;77.09
41654;BME280;68687;52.030;7.110;2023-04-22T07:14:03;100048.41;;;12.00;76.54
41654;BME280;68687;52.030;7.110;2023-04-22T07:16:29;100052.34;;;12.04;77.01
41654;BME280;68687;52.030;7.110;2023-04-22T07:18:54;100042.84;;;12.22;76.71
41654;BME280;68687;52.030;7.110;2023-04-22T07:21:20;100033.75;;;12.16;78.12
41654;BME280;68687;52.030;7.110;2023-04-22T07:23:45;100037.84;;;12.32;77.48
41654;BME280;68687;52.030;7.110;2023-04-22T07:26:10;100027.91;;;12.32;77.99
41654;BME280;68687;52.030;7.110;2023-04-22T07:28:36;100018.97;;;12.52;77.50
41654;BME280;68687;52.030;7.110;2023-04-22T07:31:01;100026.63;;;12.61;76.64
41654;BME280;68687;52.030;7.110;2023-04-22T07:33:27;100017.09;;;12.65;75.79
41654;BME280;68687;52.030;7.110;2023-04-22T07:35:52;100024.78;;;12.62;76.73
41654;BME280;68687;52.030;7.110;2023-04-22T07:38:17;100016.56;;;12.95;76.79
41654;BME280;68687;52.030;7.110;2023-04-22T07:40:43;100010.88;;;13.54;74.34
41654;BME280;68687;52.030;7.110;2023-04-22T07:43:08;100014.44;;;13.80;74.55
41654;BME280;68687;52.030;7.110;2023-04-22T07:45:33;100009.72;;;14.00;72.10
41654;BME280;68687;52.030;7.110;2023-04-22T07:47:59;100016.91;;;14.31;70.99
41654;BME280;68687;52.030;7.110;2023-04-22T07:50:24;100021.28;;;14.50;70.45
41654;BME280;68687;52.030;7.110;2023-04-22T07:52:49;100012.63;;;14.85;70.97
41654;BME280;68687;52.030;7.110;2023-04-22T07:55:15;100015.09;;;14.87;66.81
41654;BME280;68687;52.030;7.110;2023-04-22T07:57:40;100011.16;;;15.01;68.00
41654;BME280;68687;52.030;7.110;2023-04-22T08:00:06;100006.44;;;15.26;65.81
41654;BME280;68687;52.030;7.110;2023-04-22T08:02:33;100012.66;;;15.45;65.77
41654;BME280;68687;52.030;7.110;2023-04-22T08:04:58;100016.88;;;15.41;64.03
41654;BME280;68687;52.030;7.110;2023-04-22T08:07:24;100009.47;;;15.78;64.32
41654;BME280;68687;52.030;7.110;2023-04-22T08:09:50;100002.88;;;15.62;64.55
41654;BME280;68687;52.030;7.110;2023-04-22T08:12:15;100005.28;;;15.94;62.61
41654;BME280;68687;52.030;7.110;2023-04-22T08:14:40;100000.31;;;16.14;62.99
41654;BME280;68687;52.030;7.110;2023-04-22T08:17:06;100005.41;;;16.22;61.69
41654;BME280;68687;52.030;7.110;2023-04-22T08:19:31;99995.84;;;16.55;62.73
41654;BME280;68687;52.030;7.110;2023-04-22T08:21:56;99990.28;;;16.61;59.65
41654;BME280;68687;52.030;7.110;2023-04-22T08:24:22;99995.25;;;16.53;59.20
41654;BME280;68687;52.030;7.110;2023-04-22T08:26:47;99988.88;;;16.71;60.65
41654;BME280;68687;52.030;7.110;2023-04-22T08:29:13;99992.53;;;16.53;58.19
41654;BME280;68687;52.030;7.110;2023-04-22T08:31:38;100003.16;;;16.66;61.05
41654;BME280;68687;52.030;7.110;2023-04-22T08:34:03;99975.66;;;17.14;61.87
41654;BME280;68687;52.030;7.110;2023-04-22T08:36:30;99968.69;;;16.90;58.93
41654;BME280;68687;52.030;7.110;2023-04-22T08:38:55;99963.81;;;17.49;59.19
41654;BME280;68687;52.030;7.110;2023-04-22T08:41:21;99964.41;;;17.22;56.93
41654;BME280;68687;52.030;7.110;2023-04-22T08:43:48;99966.19;;;17.45;57.21
41654;BME280;68687;52.030;7.110;2023-04-22T08:46:14;99966.63;;;17.54;58.57
41654;BME280;68687;52.030;7.110;2023-04-22T08:48:40;99972.72;;;17.16;57.38
41654;BME280;68687;52.030;7.110;2023-04-22T08:51:07;99975.09;;;17.12;57.22
41654;BME280;68687;52.030;7.110;2023-04-22T08:53:33;99986.00;;;17.01;59.02
41654;BME280;68687;52.030;7.110;2023-04-22T08:55:58;99980.75;;;17.39;56.62
41654;BME280;68687;52.030;7.110;2023-04-22T08:58:24;99979.75;;;17.28;57.65
41654;BME280;68687;52.030;7.110;2023-04-22T09:00:58;99967.47;;;17.54;57.83
41654;BME280;68687;52.030;7.110;2023-04-22T09:03:25;99982.88;;;17.37;55.93
41654;BME280;68687;52.030;7.110;2023-04-22T09:05:50;99978.34;;;17.71;58.66
41654;BME280;68687;52.030;7.110;2023-04-22T09:08:20;99969.63;;;17.69;54.97
41654;BME280;68687;52.030;7.110;2023-04-22T09:10:46;99972.22;;;17.64;55.92
41654;BME280;68687;52.030;7.110;2023-04-22T09:13:12;99972.44;;;17.91;56.44
41654;BME280;68687;52.030;7.110;2023-04-22T09:15:38;99956.34;;;18.06;56.14
41654;BME280;68687;52.030;7.110;2023-04-22T09:20:54;99947.19;;;18.29;56.96
41654;BME280;68687;52.030;7.110;2023-04-22T09:23:23;99935.22;;;18.08;56.28
41654;BME280;68687;52.030;7.110;2023-04-22T09:25:49;99954.97;;;18.04;56.99
41654;BME280;68687;52.030;7.110;2023-04-22T09:28:17;99934.41;;;17.57;56.24
41654;BME280;68687;52.030;7.110;2023-04-22T09:30:44;99953.28;;;17.81;56.71
41654;BME280;68687;52.030;7.110;2023-04-22T09:33:16;99936.56;;;17.72;57.19
41654;BME280;68687;52.030;7.110;2023-04-22T09:35:42;99952.97;;;17.66;57.24
41654;BME280;68687;52.030;7.110;2023-04-22T09:38:10;99954.63;;;17.67;55.94
41654;BME280;68687;52.030;7.110;2023-04-22T09:40:37;99949.03;;;18.07;57.81
41654;BME280;68687;52.030;7.110;2023-04-22T09:43:06;99943.50;;;18.18;56.65
41654;BME280;68687;52.030;7.110;2023-04-22T09:45:36;99929.00;;;18.68;55.15
41654;BME280;68687;52.030;7.110;2023-04-22T09:48:06;99930.25;;;18.82;54.18
41654;BME280;68687;52.030;7.110;2023-04-22T09:50:32;99924.00;;;19.09;54.36
41654;BME280;68687;52.030;7.110;2023-04-22T09:53:00;99926.38;;;19.27;53.79
41654;BME280;68687;52.030;7.110;2023-04-22T09:55:30;99920.06;;;18.95;52.00
41654;BME280;68687;52.030;7.110;2023-04-22T09:57:56;99932.19;;;19.14;52.17
41654;BME280;68687;52.030;7.110;2023-04-22T10:00:24;99936.63;;;19.74;50.30
41654;BME280;68687;52.030;7.110;2023-04-22T10:02:57;99943.22;;;19.24;51.47
41654;BME280;68687;52.030;7.110;2023-04-22T10:05:23;99922.91;;;18.83;51.36
41654;BME280;68687;52.030;7.110;2023-04-22T10:07:49;99915.63;;;19.15;53.15
41654;BME280;68687;52.030;7.110;2023-04-22T10:10:15;99924.44;;;19.23;52.45
41654;BME280;68687;52.030;7.110;2023-04-22T10:12:41;99928.00;;;19.55;52.24
41654;BME280;68687;52.030;7.110;2023-04-22T10:15:07;99929.00;;;19.76;49.81
41654;BME280;68687;52.030;7.110;2023-04-22T10:17:35;99925.84;;;19.57;49.01
41654;BME280;68687;52.030;7.110;2023-04-22T10:20:03;99909.53;;;19.99;49.98
41654;BME280;68687;52.030;7.110;2023-04-22T10:22:32;99900.94;;;20.80;50.09
41654;BME280;68687;52.030;7.110;2023-04-22T10:24:58;99918.75;;;20.98;46.45
41654;BME280;68687;52.030;7.110;2023-04-22T10:27:23;99902.34;;;20.83;47.05
41654;BME280;68687;52.030;7.110;2023-04-22T10:29:48;99904.47;;;20.65;47.07
41654;BME280;68687;52.030;7.110;2023-04-22T10:34:46;99903.44;;;20.87;46.77
41654;BME280;68687;52.030;7.110;2023-04-22T10:37:13;99904.06;;;21.09;47.91
41654;BME280;68687;52.030;7.110;2023-04-22T10:39:40;99903.09;;;20.58;46.65
41654;BME280;68687;52.030;7.110;2023-04-22T10:42:12;99897.94;;;20.72;45.11
41654;BME280;68687;52.030;7.110;2023-04-22T10:50:11;99902.69;;;20.39;46.46
41654;BME280;68687;52.030;7.110;2023-04-22T10:52:37;99896.91;;;20.98;45.51
41654;BME280;68687;52.030;7.110;2023-04-22T10:55:03;99894.28;;;21.44;45.10
41654;BME280;68687;52.030;7.110;2023-04-22T10:57:31;99889.53;;;20.93;44.34
41654;BME280;68687;52.030;7.110;2023-04-22T11:02:53;99886.63;;;21.56;43.38
41654;BME280;68687;52.030;7.110;2023-04-22T11:05:24;99881.97;;;21.56;43.44
41654;BME280;68687;52.030;7.110;2023-04-22T11:07:53;99879.22;;;21.82;42.96
41654;BME280;68687;52.030;7.110;2023-04-22T11:13:15;99868.28;;;21.87;42.60
41654;BME280;68687;52.030;7.110;2023-04-22T11:15:44;99865.06;;;21.70;42.05
41654;BME280;68687;52.030;7.110;2023-04-22T11:18:13;99861.47;;;21.84;41.96
41654;BME280;68687;52.030;7.110;2023-04-22T11:20:39;99858.16;;;22.13;42.20
41654;BME280;68687;52.030;7.110;2023-04-22T11:23:05;99849.97;;;21.87;43.63
41654;BME280;68687;52.030;7.110;2023-04-22T11:25:30;99859.28;;;21.97;42.29
41654;BME280;68687;52.030;7.110;2023-04-22T11:27:56;99857.66;;;21.80;42.90
41654;BME280;68687;52.030;7.110;2023-04-22T11:30:23;99857.63;;;21.85;42.54
41654;BME280;68687;52.030;7.110;2023-04-22T11:32:53;99855.75;;;21.81;43.07
41654;BME280;68687;52.030;7.110;2023-04-22T11:35:32;99867.19;;;21.98;42.43
41654;BME280;68687;52.030;7.110;2023-04-22T11:38:03;99852.75;;;21.72;42.87
41654;BME280;68687;52.030;7.110;2023-04-22T11:40:32;99869.06;;;22.13;44.29
41654;BME280;68687;52.030;7.110;2023-04-22T11:42:59;99862.56;;;21.83;42.06
41654;BME280;68687;52.030;7.110;2023-04-22T11:45:26;99864.41;;;22.24;42.03
41654;BME280;68687;52.030;7.110;2023-04-22T11:47:52;99861.84;;;22.52;41.05
41654;BME280;68687;52.030;7.110;2023-04-22T11:50:20;99854.91;;;21.96;44.50
41654;BME280;68687;52.030;7.110;2023-04-22T11:57:55;99849.50;;;21.45;44.43
41654;BME280;68687;52.030;7.110;2023-04-22T12:00:21;99854.44;;;21.43;44.81
41654;BME280;68687;52.030;7.110;2023-04-22T12:02:55;99845.34;;;21.07;44.85
41654;BME280;68687;52.030;7.110;2023-04-22T12:05:31;99843.47;;;21.12;46.37
41654;BME280;68687;52.030;7.110;2023-04-22T12:07:59;99854.94;;;21.19;46.83
41654;BME280;68687;52.030;7.110;2023-04-22T12:10:25;99850.25;;;20.99;44.93
41654;BME280;68687;52.030;7.110;2023-04-22T12:12:50;99857.84;;;20.77;46.41
41654;BME280;68687;52.030;7.110;2023-04-22T12:15:15;99852.56;;;20.40;46.40
41654;BME280;68687;52.030;7.110;2023-04-22T12:17:43;99859.16;;;20.54;46.74
41654;BME280;68687;52.030;7.110;2023-04-22T12:20:11;99856.47;;;20.59;46.27
41654;BME280;68687;52.030;7.110;2023-04-22T12:22:37;99855.50;;;20.28;46.59
41654;BME280;68687;52.030;7.110;2023-04-22T12:25:03;99850.06;;;20.38;46.33
41654;BME280;68687;52.030;7.110;2023-04-22T12:27:38;99846.31;;;20.50;46.58
41654;BME280;68687;52.030;7.110;2023-04-22T12:30:04;99857.88;;;20.82;45.88
41654;BME280;68687;52.030;7.110;2023-04-22T12:32:30;99839.91;;;21.02;46.04
41654;BME280;68687;52.030;7.110;2023-04-22T12:34:55;99844.84;;;21.20;45.06
41654;BME280;68687;52.030;7.110;2023-04-22T12:37:20;99846.72;;;20.94;46.52
41654;BME280;68687;52.030;7.110;2023-04-22T12:39:48;99848.09;;;21.02;45.74
41654;BME280;68687;52.030;7.110;2023-04-22T12:42:14;99846.16;;;21.07;47.38
41654;BME280;68687;52.030;7.110;2023-04-22T12:44:40;99833.09;;;21.09;47.30
41654;BME280;68687;52.030;7.110;2023-04-22T12:47:05;99835.56;;;21.31;46.31
41654;BME280;68687;52.030;7.110;2023-04-22T12:49:31;99845.09;;;21.13;46.12
41654;BME280;68687;52.030;7.110;2023-04-22T12:51:56;99843.41;;;20.77;45.98
41654;BME280;68687;52.030;7.110;2023-04-22T12:54:23;99841.94;;;20.44;46.79
41654;BME280;68687;52.030;7.110;2023-04-22T12:56:48;99841.63;;;20.35;47.89
41654;BME280;68687;52.030;7.110;2023-04-22T12:59:14;99846.31;;;20.50;48.26
41654;BME280;68687;52.030;7.110;2023-04-22T13:01:39;99840.31;;;20.48;48.75
41654;BME280;68687;52.030;7.110;2023-04-22T13:04:05;99834.03;;;20.47;48.29
41654;BME280;68687;52.030;7.110;2023-04-22T13:06:30;99846.53;;;20.38;49.43
41654;BME280;68687;52.030;7.110;2023-04-22T13:08:57;99839.38;;;20.27;48.95
41654;BME280;68687;52.030;7.110;2023-04-22T13:11:22;99843.25;;;20.36;49.14
41654;BME280;68687;52.030;7.110;2023-04-22T13:13:49;99839.75;;;20.41;49.93
41654;BME280;68687;52.030;7.110;2023-04-22T13:16:14;99836.16;;;20.35;49.51